Time;durP1;ratioP1;P1;durP2;ratioP2;P2;SDS_P1;SDS_P2;PMS_P1;PMS_P2;Temp;Humidity;BMP_temperature;BMP_pressure;BME280_temperature;BME280_humidity;BME280_pressure;Samples;Min_cycle;Max_cycle;Signal;HPM_P1;HPM_P2
2022/08/29 00:04:02;;;;;;;4.97;2.22;;;23.30;85.30;;;;;;7627438;77;26769;-58
2022/08/29 00:14:05;;;;;;;12.78;1.67;;;23.20;85.30;;;;;;7634553;76;26729;-59
2022/08/29 00:24:08;;;;;;;8.68;2.30;;;23.20;85.10;;;;;;7617781;76;26820;-59
2022/08/29 00:34:10;;;;;;;5.28;1.52;;;23.20;84.60;;;;;;7634604;76;26252;-58
2022/08/29 00:44:13;;;;;;;4.78;1.70;;;23.10;84.70;;;;;;7617106;76;26369;-58
2022/08/29 00:54:16;;;;;;;3.17;1.65;;;23.10;84.40;;;;;;7623209;76;26322;-57
2022/08/29 01:04:18;;;;;;;7.45;2.37;;;23.00;84.00;;;;;;7634100;76;26939;-59
2022/08/29 01:14:24;;;;;;;3.15;1.92;;;23.00;84.00;;;;;;7632633;76;26256;-58
2022/08/29 01:24:44;;;;;;;6.10;2.00;;;22.90;83.50;;;;;;7629110;76;26237;-59
2022/08/29 01:34:47;;;;;;;5.47;1.60;;;22.90;83.40;;;;;;7634261;76;26248;-59
2022/08/29 01:44:52;;;;;;;5.17;1.85;;;22.90;83.50;;;;;;7578681;78;26798;-59
2022/08/29 01:54:54;;;;;;;4.45;1.60;;;22.80;83.40;;;;;;7632661;76;26256;-58
2022/08/29 02:04:57;;;;;;;4.03;1.90;;;22.80;83.20;;;;;;7634482;76;26315;-57
2022/08/29 02:15:00;;;;;;;4.35;1.62;;;22.80;83.20;;;;;;7628664;76;26796;-59
2022/08/29 02:25:40;;;;;;;8.18;1.47;;;22.70;83.40;;;;;;7634534;76;26305;-58
2022/08/29 02:35:08;;;;;;;7.65;1.70;;;22.70;83.20;;;;;;7627743;78;26349;-58
2022/08/29 02:45:11;;;;;;;5.35;1.87;;;22.70;83.40;;;;;;7620996;76;26313;-56
2022/08/29 02:55:18;;;;;;;6.40;1.95;;;22.70;83.10;;;;;;7634426;76;26248;-60
2022/08/29 03:05:26;;;;;;;5.37;1.40;;;22.60;82.90;;;;;;7634651;76;26232;-59
2022/08/29 03:15:28;;;;;;;4.65;1.95;;;22.60;83.20;;;;;;7627825;76;26753;-59
2022/08/29 03:25:32;;;;;;;6.12;1.92;;;22.60;83.30;;;;;;7635056;76;26233;-57
2022/08/29 03:35:34;;;;;;;4.75;1.98;;;22.60;83.20;;;;;;7630795;76;26269;-59
2022/08/29 03:45:37;;;;;;;6.33;2.58;;;22.50;83.10;;;;;;7620903;76;26735;-58
2022/08/29 03:55:39;;;;;;;4.55;2.02;;;22.50;83.00;;;;;;7634235;76;26298;-58
2022/08/29 04:05:42;;;;;;;5.42;2.22;;;22.40;83.00;;;;;;7634480;76;26193;-56
2022/08/29 04:15:44;;;;;;;8.43;2.37;;;22.40;82.90;;;;;;7620813;76;26994;-58
2022/08/29 04:25:47;;;;;;;5.30;2.02;;;22.40;82.90;;;;;;7630354;76;26200;-57
2022/08/29 04:35:50;;;;;;;7.05;2.17;;;22.30;82.70;;;;;;7634806;76;26244;-59
2022/08/29 04:45:56;;;;;;;5.75;2.10;;;22.30;83.10;;;;;;7627826;76;26196;-58
2022/08/29 04:56:01;;;;;;;4.60;1.90;;;22.30;83.30;;;;;;7606961;78;26303;-56
2022/08/29 05:06:07;;;;;;;10.48;2.65;;;22.20;83.00;;;;;;7598679;76;26326;-58
2022/08/29 05:16:11;;;;;;;6.63;2.37;;;22.20;83.10;;;;;;7595853;76;26282;-57
2022/08/29 05:26:13;;;;;;;5.73;2.13;;;22.20;82.60;;;;;;7594700;76;26223;-57
2022/08/29 05:36:16;;;;;;;6.80;2.37;;;22.20;82.20;;;;;;7593440;76;26477;-56
2022/08/29 05:46:19;;;;;;;6.12;2.72;;;22.20;82.50;;;;;;7590658;76;26266;-56
2022/08/29 05:56:23;;;;;;;5.33;2.30;;;22.20;82.20;;;;;;7606804;76;26274;-57
2022/08/29 06:06:28;;;;;;;9.47;3.00;;;22.20;81.90;;;;;;7597030;76;27146;-55
2022/08/29 06:16:31;;;;;;;6.75;2.60;;;22.20;82.00;;;;;;7606091;76;26347;-58
2022/08/29 06:26:34;;;;;;;8.00;3.65;;;22.20;81.80;;;;;;7593970;76;26721;-57
2022/08/29 06:36:37;;;;;;;10.10;3.43;;;22.30;80.70;;;;;;7592417;78;26271;-55
2022/08/29 06:46:43;;;;;;;6.43;3.03;;;22.30;80.90;;;;;;7602338;76;26726;-56
2022/08/29 06:56:46;;;;;;;8.63;3.40;;;22.20;81.30;;;;;;7608655;77;27016;-57
2022/08/29 07:06:49;;;;;;;9.58;3.60;;;22.10;81.50;;;;;;7599546;76;26359;-56
2022/08/29 07:16:51;;;;;;;11.53;3.57;;;22.10;81.40;;;;;;7603704;78;26260;-56
2022/08/29 07:26:57;;;;;;;13.93;3.43;;;22.10;81.50;;;;;;7593308;78;26228;-57
2022/08/29 07:37:01;;;;;;;14.13;3.53;;;22.20;81.90;;;;;;7603909;76;26228;-54
2022/08/29 07:47:04;;;;;;;12.27;3.40;;;22.00;81.90;;;;;;7609855;76;26319;-56
2022/08/29 07:57:15;;;;;;;16.35;3.90;;;22.20;82.40;;;;;;7608668;77;26325;-57
2022/08/29 08:07:17;;;;;;;10.72;3.42;;;22.10;82.50;;;;;;7604816;76;26304;-55
2022/08/29 08:17:20;;;;;;;14.00;4.07;;;22.30;82.20;;;;;;7594247;76;26240;-57
2022/08/29 08:27:23;;;;;;;40.17;6.62;;;22.30;82.60;;;;;;7598398;78;26246;-55
2022/08/29 08:37:25;;;;;;;57.15;7.50;;;22.30;82.40;;;;;;7591979;76;26326;-55
2022/08/29 08:47:33;;;;;;;145.17;27.70;;;22.30;82.30;;;;;;7598526;77;26948;-55
2022/08/29 08:57:39;;;;;;;135.90;26.62;;;22.40;82.30;;;;;;7583654;77;26375;-54
2022/08/29 09:08:03;;;;;;;107.72;21.62;;;22.50;82.70;;;;;;7616463;76;26738;-55
2022/08/29 09:18:11;;;;;;;69.23;10.43;;;22.50;82.90;;;;;;7635156;76;26345;-57
2022/08/29 09:28:14;;;;;;;49.15;8.50;;;22.40;82.40;;;;;;7619249;76;27033;-55
2022/08/29 09:38:20;;;;;;;35.88;5.42;;;22.50;82.30;;;;;;7632687;76;26838;-55
2022/08/29 09:48:23;;;;;;;12.58;3.90;;;22.50;80.60;;;;;;7625516;76;26262;-55
2022/08/29 09:58:29;;;;;;;15.83;3.60;;;22.50;79.70;;;;;;7603315;76;26380;-58
2022/08/29 10:08:37;;;;;;;16.42;4.90;;;22.60;79.40;;;;;;7574395;76;26555;-58
2022/08/29 10:18:52;;;;;;;15.55;4.10;;;22.60;81.70;;;;;;7604381;76;26256;-58
2022/08/29 10:29:01;;;;;;;11.95;3.00;;;22.70;81.50;;;;;;7592262;78;27347;-58
2022/08/29 10:39:18;;;;;;;8.45;3.10;;;22.80;81.50;;;;;;7594285;76;26402;-57
2022/08/29 10:49:41;;;;;;;10.08;3.10;;;22.80;81.80;;;;;;7537859;76;26347;-60
2022/08/29 11:00:10;;;;;;;11.63;3.58;;;22.90;82.20;;;;;;7586379;76;26361;-60
2022/08/29 11:10:19;;;;;;;6.28;2.67;;;22.90;81.60;;;;;;7586353;76;26241;-57
2022/08/29 11:20:25;;;;;;;7.62;2.62;;;23.00;80.80;;;;;;7598228;76;26349;-58
2022/08/29 11:30:35;;;;;;;18.95;3.83;;;23.00;80.50;;;;;;7602797;76;26302;-59
2022/08/29 11:40:55;;;;;;;23.35;3.37;;;23.00;81.50;;;;;;7578178;78;26808;-58
2022/08/29 11:50:58;;;;;;;18.73;4.47;;;23.10;82.40;;;;;;7584495;76;26297;-60
2022/08/29 12:01:00;;;;;;;14.25;3.05;;;23.10;82.00;;;;;;7598003;76;26326;-59
2022/08/29 12:11:05;;;;;;;10.90;2.77;;;23.10;80.20;;;;;;7588219;76;27209;-55
2022/08/29 12:21:33;;;;;;;9.18;2.37;;;23.20;79.30;;;;;;7604997;76;26307;-57
2022/08/29 12:31:47;;;;;;;9.58;3.40;;;23.20;79.70;;;;;;7615955;76;26756;-57
2022/08/29 12:41:53;;;;;;;10.13;2.85;;;23.30;78.60;;;;;;7585468;77;26282;-57
2022/08/29 12:52:01;;;;;;;7.17;3.00;;;23.30;78.50;;;;;;7594163;76;27286;-58
2022/08/29 13:02:05;;;;;;;9.05;3.00;;;23.30;79.60;;;;;;7593477;76;26321;-59
2022/08/29 13:12:26;;;;;;;15.83;3.87;;;23.40;80.10;;;;;;7600136;78;26256;-58
2022/08/29 13:22:28;;;;;;;8.05;3.08;;;23.40;82.20;;;;;;7570046;76;26232;-56
2022/08/29 13:32:32;;;;;;;8.68;3.12;;;23.40;78.80;;;;;;7594574;78;26274;-57
2022/08/29 13:42:34;;;;;;;12.25;3.00;;;23.50;80.50;;;;;;7595713;78;26840;-59
2022/08/29 13:52:37;;;;;;;11.18;2.95;;;23.50;80.00;;;;;;7609109;78;26298;-59
2022/08/29 14:02:40;;;;;;;11.63;3.05;;;23.50;80.30;;;;;;7623380;76;26327;-54
2022/08/29 14:12:43;;;;;;;4.87;2.52;;;23.50;80.00;;;;;;7608618;76;26299;-58
2022/08/29 14:22:46;;;;;;;13.35;3.08;;;23.50;79.80;;;;;;7583887;76;26308;-57
2022/08/29 14:32:48;;;;;;;18.05;4.33;;;23.50;80.70;;;;;;7575045;76;26236;-57
2022/08/29 14:42:51;;;;;;;16.62;4.10;;;23.60;80.90;;;;;;7561914;77;26729;-58
2022/08/29 14:52:53;;;;;;;22.87;3.72;;;23.60;81.10;;;;;;7628028;76;26286;-57
2022/08/29 15:02:56;;;;;;;8.60;3.02;;;23.60;80.00;;;;;;7634504;76;26306;-56
2022/08/29 15:12:59;;;;;;;8.33;3.15;;;23.60;80.50;;;;;;7627749;76;26224;-58
2022/08/29 15:23:01;;;;;;;10.05;2.83;;;23.60;79.70;;;;;;7626969;76;26768;-58
2022/08/29 15:33:04;;;;;;;12.90;3.08;;;23.70;78.50;;;;;;7629807;78;26330;-57
2022/08/29 15:43:07;;;;;;;11.20;4.25;;;23.70;79.60;;;;;;7635381;76;26287;-56
2022/08/29 15:53:10;;;;;;;5.20;2.83;;;23.70;80.20;;;;;;7628501;76;26236;-59
2022/08/29 16:03:12;;;;;;;8.33;2.90;;;23.70;80.10;;;;;;7634836;76;26252;-58
2022/08/29 16:13:15;;;;;;;5.95;2.72;;;23.70;79.60;;;;;;7630454;76;26706;-58
2022/08/29 16:23:17;;;;;;;5.60;2.47;;;23.80;79.30;;;;;;7628113;76;26726;-59
2022/08/29 16:33:21;;;;;;;3.37;2.30;;;23.80;79.60;;;;;;7634743;76;26293;-58
2022/08/29 16:43:24;;;;;;;5.95;2.42;;;23.80;80.10;;;;;;7635343;76;26248;-59
2022/08/29 16:53:26;;;;;;;5.40;2.77;;;23.80;79.60;;;;;;7627995;76;26224;-58
2022/08/29 17:03:29;;;;;;;4.10;2.67;;;23.80;79.40;;;;;;7634353;76;26228;-59
2022/08/29 17:23:37;;;;;;;5.85;2.80;;;23.80;78.30;;;;;;7624755;76;26314;-58
2022/08/29 17:33:40;;;;;;;5.37;2.52;;;23.80;79.70;;;;;;7631281;76;26240;-58
2022/08/29 17:43:43;;;;;;;7.65;2.85;;;23.80;79.90;;;;;;7606564;76;26306;-58
2022/08/29 17:53:46;;;;;;;6.33;2.87;;;23.80;80.20;;;;;;7634724;76;26299;-56
2022/08/29 18:03:49;;;;;;;9.40;2.90;;;23.80;80.30;;;;;;7634082;76;26741;-58
2022/08/29 18:13:52;;;;;;;15.15;2.95;;;23.80;80.50;;;;;;7630046;76;26305;-58
2022/08/29 18:23:55;;;;;;;10.63;3.17;;;23.80;80.90;;;;;;7627480;76;26694;-57
2022/08/29 18:33:58;;;;;;;11.45;2.95;;;23.70;81.40;;;;;;7618144;76;26760;-57
2022/08/29 18:44:01;;;;;;;17.37;3.55;;;23.70;81.60;;;;;;7595182;76;26803;-57
2022/08/29 18:54:03;;;;;;;13.68;3.50;;;23.70;82.00;;;;;;7598964;76;26246;-56
2022/08/29 19:04:07;;;;;;;7.25;3.12;;;23.70;83.60;;;;;;7611186;76;26232;-57
2022/08/29 19:14:09;;;;;;;10.60;3.10;;;23.70;87.80;;;;;;7610998;78;26235;-57
2022/08/29 19:24:12;;;;;;;9.08;2.55;;;23.70;90.80;;;;;;7605874;76;26255;-58
2022/08/29 19:34:14;;;;;;;19.77;3.22;;;23.60;89.00;;;;;;7600667;76;27054;-58
2022/08/29 19:44:17;;;;;;;10.35;2.42;;;23.60;86.80;;;;;;7596445;78;26333;-58
2022/08/29 19:54:20;;;;;;;7.58;3.42;;;23.60;89.60;;;;;;7612526;76;26853;-58
2022/08/29 20:04:22;;;;;;;14.45;3.22;;;23.60;90.30;;;;;;7593311;78;26225;-58
2022/08/29 20:14:25;;;;;;;11.53;3.92;;;23.60;90.60;;;;;;7594993;78;26854;-58
2022/08/29 20:24:27;;;;;;;7.10;2.67;;;23.50;90.50;;;;;;7592537;76;26937;-57
2022/08/29 20:34:30;;;;;;;17.48;3.12;;;23.50;90.10;;;;;;7594367;76;26271;-56
2022/08/29 20:44:37;;;;;;;8.75;2.80;;;23.50;91.50;;;;;;7605551;78;26725;-58
2022/08/29 20:54:39;;;;;;;7.15;2.47;;;23.50;91.60;;;;;;7631666;76;26318;-57
2022/08/29 21:15:02;;;;;;;7.15;2.70;;;23.40;91.50;;;;;;7591900;78;26272;-58
2022/08/29 21:25:05;;;;;;;7.33;2.70;;;23.40;91.20;;;;;;7593575;76;26279;-57
2022/08/29 21:35:08;;;;;;;5.15;2.62;;;23.40;90.70;;;;;;7592672;78;26368;-57
2022/08/29 21:45:11;;;;;;;3.42;2.33;;;23.30;90.40;;;;;;7594472;76;26262;-58
2022/08/29 21:55:14;;;;;;;4.87;2.15;;;23.30;90.00;;;;;;7558061;76;26710;-58
2022/08/29 22:05:16;;;;;;;3.95;2.40;;;23.20;88.60;;;;;;7615108;76;26341;-57
2022/08/29 22:25:40;;;;;;;3.37;2.00;;;23.20;87.80;;;;;;7635757;75;26254;-57
2022/08/29 22:35:42;;;;;;;3.85;2.10;;;23.20;89.70;;;;;;7656885;76;26263;-57
2022/08/29 22:45:45;;;;;;;4.85;2.20;;;23.20;90.00;;;;;;7618314;76;26321;-57
2022/08/29 22:55:47;;;;;;;4.22;2.00;;;23.20;89.80;;;;;;7621138;76;26295;-56
2022/08/29 23:05:50;;;;;;;7.75;2.65;;;23.10;89.60;;;;;;7613993;78;26303;-58
2022/08/29 23:15:52;;;;;;;4.08;2.27;;;23.10;89.30;;;;;;7604982;78;26646;-58
2022/08/29 23:25:55;;;;;;;5.35;2.52;;;23.10;89.30;;;;;;7604815;78;26254;-57
2022/08/29 23:35:57;;;;;;;4.80;1.80;;;23.00;89.00;;;;;;7566074;78;26382;-57
2022/08/29 23:46:01;;;;;;;2.98;2.10;;;23.00;88.50;;;;;;7473294;78;26310;-58
2022/08/29 23:56:19;;;;;;;3.55;1.75;;;22.90;86.90;;;;;;7471000;78;26268;-56
